Time;durP1;ratioP1;P1;durP2;ratioP2;P2;SDS_P1;SDS_P2;PMS_P1;PMS_P2;Temp;Humidity;BMP_temperature;BMP_pressure;BME280_temperature;BME280_humidity;BME280_pressure;Samples;Min_cycle;Max_cycle;Signal;HPM_P1;HPM_P2
2022/01/14 00:01:24;;;;;;;0.63;0.60;;;1.10;99.90;;;;;;4990806;28;20187;-72
2022/01/14 00:03:49;;;;;;;0.60;0.50;;;1.20;99.90;;;;;;4992057;28;20590;-72
2022/01/14 00:06:15;;;;;;;1.10;0.70;;;1.20;99.90;;;;;;4990849;28;20203;-72
2022/01/14 00:08:40;;;;;;;1.00;0.80;;;1.10;99.90;;;;;;4994716;28;20249;-73
2022/01/14 00:11:14;;;;;;;2.67;2.07;;;1.10;99.90;;;;;;4995709;28;20183;-72
2022/01/14 00:14:21;;;;;;;0.80;0.80;;;1.10;99.90;;;;;;4995607;28;20172;-72
2022/01/14 00:16:32;;;;;;;0.60;0.50;;;1.00;99.90;;;;;;4992369;28;20489;-72
2022/01/14 00:18:59;;;;;;;0.60;0.50;;;1.00;99.90;;;;;;4995023;28;20557;-72
2022/01/14 00:21:28;;;;;;;2.53;2.43;;;1.00;99.90;;;;;;4995366;28;20710;-73
2022/01/14 00:24:06;;;;;;;1.70;1.60;;;1.00;99.90;;;;;;4994805;28;20796;-72
2022/01/14 00:34:35;;;;;;;1.67;1.57;;;1.00;99.90;;;;;;4995334;28;20417;-72
2022/01/14 00:37:00;;;;;;;0.60;0.60;;;0.90;99.90;;;;;;4978524;28;21060;-73
2022/01/14 00:39:26;;;;;;;1.33;1.23;;;1.00;99.90;;;;;;4995203;28;20183;-72
2022/01/14 00:41:52;;;;;;;0.60;0.60;;;0.90;99.90;;;;;;4977557;28;20952;-73
2022/01/14 00:44:19;;;;;;;0.80;0.80;;;1.00;99.90;;;;;;4995019;28;20180;-73
2022/01/14 00:46:46;;;;;;;0.60;0.50;;;1.00;99.90;;;;;;4994461;28;20459;-73
2022/01/14 00:49:13;;;;;;;0.60;0.60;;;1.00;99.90;;;;;;4994846;28;20478;-73
2022/01/14 00:51:39;;;;;;;0.60;0.60;;;1.00;99.90;;;;;;4994636;28;20423;-74
2022/01/14 00:54:06;;;;;;;0.90;0.90;;;1.10;99.90;;;;;;4994826;28;20852;-74
2022/01/14 00:56:45;;;;;;;3.07;0.97;;;1.10;99.90;;;;;;4994131;28;21018;-73
2022/01/14 00:59:16;;;;;;;1.07;0.97;;;1.10;99.90;;;;;;4994485;28;20788;-74
2022/01/14 01:01:44;;;;;;;1.33;1.33;;;1.00;99.90;;;;;;4994654;28;20412;-74
2022/01/14 01:04:11;;;;;;;0.70;0.70;;;1.00;99.90;;;;;;4994646;28;20420;-73
2022/01/14 01:06:37;;;;;;;0.63;0.50;;;1.00;99.90;;;;;;4994769;28;20440;-73
2022/01/14 01:09:08;;;;;;;6.83;1.63;;;0.90;99.90;;;;;;4993089;28;20430;-73
2022/01/14 01:11:37;;;;;;;1.63;1.53;;;0.90;99.90;;;;;;4994202;28;20427;-73
2022/01/14 01:14:19;;;;;;;0.60;0.50;;;0.80;99.90;;;;;;4993476;28;20515;-73
2022/01/14 01:16:45;;;;;;;0.60;0.60;;;0.90;99.90;;;;;;4976465;28;20463;-73
2022/01/14 01:19:11;;;;;;;2.80;1.03;;;0.80;99.90;;;;;;4993058;28;20947;-73
2022/01/14 01:21:38;;;;;;;0.63;0.60;;;0.70;99.90;;;;;;4994267;28;20172;-73
2022/01/14 01:24:04;;;;;;;0.60;0.60;;;0.80;99.90;;;;;;4989866;28;20429;-72
2022/01/14 01:26:36;;;;;;;0.63;0.60;;;0.80;99.90;;;;;;4987475;28;20438;-73
2022/01/14 01:31:37;;;;;;;0.60;0.50;;;0.70;99.90;;;;;;4994210;28;20435;-74
2022/01/14 01:34:08;;;;;;;0.60;0.60;;;0.80;99.90;;;;;;4994086;28;20847;-73
2022/01/14 01:36:35;;;;;;;3.57;1.10;;;0.80;99.90;;;;;;4976611;28;20497;-72
2022/01/14 01:39:00;;;;;;;1.43;1.20;;;0.70;99.90;;;;;;4993784;28;20543;-72
2022/01/14 01:41:27;;;;;;;0.70;0.60;;;0.70;99.90;;;;;;4994241;28;21031;-72
2022/01/14 01:43:54;;;;;;;0.60;0.60;;;0.70;99.90;;;;;;4985443;28;20259;-72
2022/01/14 01:46:21;;;;;;;0.60;0.50;;;0.60;99.90;;;;;;4982922;28;20458;-72
2022/01/14 01:48:47;;;;;;;0.60;0.50;;;0.60;99.90;;;;;;4993489;28;20438;-72
2022/01/14 01:51:13;;;;;;;1.00;1.00;;;0.60;99.90;;;;;;4976151;28;20442;-72
2022/01/14 01:53:39;;;;;;;1.43;0.83;;;0.60;99.90;;;;;;4993732;28;20905;-73
2022/01/14 01:56:05;;;;;;;1.33;1.00;;;0.60;99.90;;;;;;4993895;28;20453;-73
2022/01/14 01:58:30;;;;;;;0.60;0.50;;;0.60;99.90;;;;;;4993936;28;20206;-73
2022/01/14 02:00:56;;;;;;;0.60;0.50;;;0.50;99.90;;;;;;4987322;28;20510;-73
2022/01/14 02:03:22;;;;;;;0.60;0.60;;;0.60;99.90;;;;;;4992585;28;20177;-73
2022/01/14 02:05:48;;;;;;;0.97;0.97;;;0.50;99.90;;;;;;4993183;28;20517;-74
2022/01/14 02:08:14;;;;;;;2.60;1.67;;;0.50;99.90;;;;;;4993274;28;20165;-74
2022/01/14 02:10:39;;;;;;;0.60;0.50;;;0.60;99.90;;;;;;4993647;28;20431;-74
2022/01/14 02:13:06;;;;;;;1.70;1.27;;;0.50;99.90;;;;;;4988855;28;20264;-74
2022/01/14 02:23:41;;;;;;;0.60;0.60;;;0.60;99.90;;;;;;4993474;28;20431;-74
2022/01/14 02:26:07;;;;;;;0.60;0.50;;;0.50;99.90;;;;;;4993115;28;20450;-73
2022/01/14 02:28:33;;;;;;;0.93;0.93;;;0.50;99.90;;;;;;4992784;28;20432;-73
2022/01/14 02:30:58;;;;;;;0.60;0.50;;;0.40;99.90;;;;;;4992768;28;20428;-74
2022/01/14 02:33:24;;;;;;;0.60;0.50;;;0.40;99.90;;;;;;4992303;28;20824;-74
2022/01/14 02:35:51;;;;;;;0.60;0.60;;;0.50;99.90;;;;;;4992855;28;20620;-74
2022/01/14 02:38:18;;;;;;;0.60;0.50;;;0.50;99.90;;;;;;4991921;28;20454;-73
2022/01/14 02:40:45;;;;;;;0.70;0.67;;;0.50;99.90;;;;;;4993035;28;20443;-73
2022/01/14 02:43:15;;;;;;;0.60;0.50;;;0.50;99.90;;;;;;4992748;28;20416;-73
2022/01/14 02:45:44;;;;;;;0.80;0.80;;;0.50;99.90;;;;;;4992497;28;20817;-73
2022/01/14 02:48:10;;;;;;;1.53;1.43;;;0.50;99.90;;;;;;4987309;28;20530;-73
2022/01/14 02:50:42;;;;;;;0.87;0.87;;;0.50;99.90;;;;;;4988014;28;20879;-74
2022/01/14 02:55:54;;;;;;;1.13;1.13;;;0.40;99.90;;;;;;4992895;28;20502;-73
2022/01/14 02:58:21;;;;;;;1.90;1.80;;;0.40;99.90;;;;;;4990920;28;20466;-74
2022/01/14 03:00:47;;;;;;;0.60;0.50;;;0.40;99.90;;;;;;4992109;28;20480;-73
2022/01/14 03:03:22;;;;;;;0.60;0.60;;;0.30;99.90;;;;;;4992403;28;20431;-73
2022/01/14 03:05:48;;;;;;;0.60;0.50;;;0.30;99.90;;;;;;4992682;28;20918;-73
2022/01/14 03:08:14;;;;;;;0.90;0.80;;;0.30;99.90;;;;;;4991915;28;20975;-73
2022/01/14 03:10:40;;;;;;;0.60;0.50;;;0.30;99.90;;;;;;4992634;28;20428;-73
2022/01/14 03:13:06;;;;;;;0.60;0.50;;;0.30;99.90;;;;;;4992207;28;20173;-73
2022/01/14 03:15:32;;;;;;;1.20;1.20;;;0.30;99.90;;;;;;4992638;28;20791;-73
2022/01/14 03:17:57;;;;;;;1.63;1.53;;;0.30;99.90;;;;;;4992211;28;20473;-74
2022/01/14 03:20:43;;;;;;;1.13;0.93;;;0.30;99.90;;;;;;4992928;28;20190;-73
2022/01/14 03:23:08;;;;;;;0.60;0.50;;;0.30;99.90;;;;;;4984121;28;20179;-73
2022/01/14 03:25:48;;;;;;;1.43;1.07;;;0.30;99.90;;;;;;4992939;28;20443;-73
2022/01/14 03:28:16;;;;;;;0.60;0.50;;;0.30;99.90;;;;;;4992500;28;20169;-73
2022/01/14 03:30:42;;;;;;;0.97;0.70;;;0.30;99.90;;;;;;4974787;28;20794;-73
2022/01/14 03:33:08;;;;;;;1.30;1.20;;;0.30;99.90;;;;;;4992481;28;20511;-73
2022/01/14 03:35:33;;;;;;;0.60;0.50;;;0.20;99.90;;;;;;4992090;28;21027;-73
2022/01/14 03:37:59;;;;;;;0.60;0.60;;;0.10;99.90;;;;;;4991696;28;20723;-73
2022/01/14 03:40:24;;;;;;;0.60;0.57;;;0.10;99.90;;;;;;4992018;28;20167;-73
2022/01/14 03:42:50;;;;;;;0.87;0.87;;;0.10;99.90;;;;;;4993836;28;20641;-73
2022/01/14 03:45:15;;;;;;;1.27;1.27;;;0.10;99.90;;;;;;4996211;28;20173;-72
2022/01/14 03:47:41;;;;;;;0.60;0.50;;;0.00;99.90;;;;;;4995291;28;20202;-72
2022/01/14 03:50:07;;;;;;;0.73;0.73;;;0.00;99.90;;;;;;4995439;28;20191;-73
2022/01/14 03:52:32;;;;;;;0.60;0.53;;;0.00;99.90;;;;;;4994881;28;20552;-73
2022/01/14 03:54:58;;;;;;;0.97;0.87;;;0.00;99.90;;;;;;4996122;28;20481;-73
2022/01/14 03:57:23;;;;;;;0.90;0.90;;;0.10;99.90;;;;;;4995641;28;20279;-73
2022/01/14 03:59:49;;;;;;;0.80;0.77;;;0.10;99.90;;;;;;4996046;28;20211;-73
2022/01/14 04:02:14;;;;;;;0.60;0.50;;;0.10;99.90;;;;;;4995991;28;20219;-73
2022/01/14 04:04:40;;;;;;;2.00;1.43;;;0.10;99.90;;;;;;4996161;28;20614;-73
2022/01/14 04:07:06;;;;;;;0.60;0.50;;;0.00;99.90;;;;;;4995687;28;20228;-73
2022/01/14 04:09:36;;;;;;;0.70;0.70;;;0.00;99.90;;;;;;4995621;28;20536;-73
2022/01/14 04:12:07;;;;;;;0.60;0.60;;;0.10;99.90;;;;;;4995218;28;20180;-73
2022/01/14 04:17:02;;;;;;;1.23;0.83;;;0.00;99.90;;;;;;4995446;28;20580;-73
2022/01/14 04:19:29;;;;;;;2.40;1.07;;;0.00;99.90;;;;;;4995044;28;20905;-73
2022/01/14 04:21:55;;;;;;;2.70;1.80;;;0.00;99.90;;;;;;4995126;28;20423;-73
2022/01/14 04:24:21;;;;;;;0.60;0.50;;;-0.10;99.90;;;;;;4995370;28;20416;-73
2022/01/14 04:26:47;;;;;;;1.03;1.03;;;-0.10;99.90;;;;;;4995075;28;20471;-72
2022/01/14 04:29:13;;;;;;;0.60;0.60;;;-0.10;99.90;;;;;;4994239;28;20176;-72
2022/01/14 04:31:38;;;;;;;0.60;0.60;;;-0.10;99.90;;;;;;4995642;28;20518;-71
2022/01/14 04:34:04;;;;;;;2.70;2.10;;;-0.10;99.90;;;;;;4994637;28;20175;-72
2022/01/14 04:36:29;;;;;;;0.60;0.60;;;0.00;99.90;;;;;;4995141;28;20200;-72
2022/01/14 04:38:55;;;;;;;0.60;0.50;;;0.00;99.90;;;;;;4994604;28;20291;-72
2022/01/14 04:41:20;;;;;;;0.60;0.50;;;0.00;99.90;;;;;;4994462;28;20256;-73
2022/01/14 04:43:46;;;;;;;0.60;0.50;;;0.10;99.90;;;;;;4995077;28;20265;-73
2022/01/14 04:48:38;;;;;;;0.60;0.50;;;0.00;99.90;;;;;;4994968;28;20181;-72
2022/01/14 04:51:07;;;;;;;1.77;1.23;;;0.00;99.90;;;;;;4995072;28;20172;-72
2022/01/14 04:53:34;;;;;;;0.60;0.50;;;-0.10;99.90;;;;;;4994296;28;20456;-73
2022/01/14 04:55:59;;;;;;;0.60;0.50;;;-0.10;99.90;;;;;;4995085;28;20452;-72
2022/01/14 04:58:26;;;;;;;0.60;0.50;;;-0.10;99.90;;;;;;4993873;28;21038;-73
2022/01/14 05:00:52;;;;;;;0.60;0.60;;;0.00;99.90;;;;;;4994963;28;20268;-72
2022/01/14 05:03:18;;;;;;;0.63;0.60;;;0.00;99.90;;;;;;4994792;28;20920;-73
2022/01/14 05:05:47;;;;;;;0.60;0.50;;;0.00;99.90;;;;;;4995055;28;20200;-73
2022/01/14 05:08:20;;;;;;;0.60;0.60;;;-0.10;99.90;;;;;;4993848;28;20169;-73
2022/01/14 05:13:17;;;;;;;1.20;1.00;;;-0.10;99.90;;;;;;4994725;28;20436;-74
2022/01/14 05:15:43;;;;;;;1.37;1.33;;;-0.20;99.90;;;;;;4994589;28;21025;-74
2022/01/14 05:18:09;;;;;;;0.80;0.80;;;-0.20;99.90;;;;;;4994083;28;20212;-73
2022/01/14 05:20:34;;;;;;;1.57;1.47;;;-0.10;99.90;;;;;;4994110;28;20631;-73
2022/01/14 05:22:59;;;;;;;0.60;0.50;;;-0.10;99.90;;;;;;4993529;28;20186;-74
2022/01/14 05:25:25;;;;;;;0.60;0.50;;;-0.20;99.90;;;;;;4994526;28;20247;-73
2022/01/14 05:27:51;;;;;;;1.20;1.10;;;-0.10;99.90;;;;;;4994415;28;20701;-73
2022/01/14 05:30:16;;;;;;;0.60;0.50;;;-0.10;99.90;;;;;;4994026;28;20220;-74
2022/01/14 05:32:46;;;;;;;0.60;0.60;;;-0.20;99.90;;;;;;4994240;28;20554;-74
2022/01/14 05:35:12;;;;;;;0.60;0.50;;;-0.10;99.90;;;;;;4993953;28;20187;-73
2022/01/14 05:37:38;;;;;;;0.60;0.50;;;-0.20;99.90;;;;;;4987165;28;20444;-73
2022/01/14 05:40:04;;;;;;;0.70;0.70;;;-0.10;99.90;;;;;;4993985;28;20454;-73
2022/01/14 05:42:33;;;;;;;0.60;0.60;;;-0.20;99.90;;;;;;4994004;28;20533;-74
2022/01/14 05:45:00;;;;;;;1.33;1.03;;;-0.20;99.90;;;;;;4993984;28;20460;-73
2022/01/14 05:47:25;;;;;;;1.03;0.90;;;-0.20;99.90;;;;;;4994062;28;20550;-73
2022/01/14 05:49:51;;;;;;;0.70;0.70;;;-0.20;99.90;;;;;;4991179;28;20422;-73
2022/01/14 05:52:17;;;;;;;0.60;0.53;;;-0.30;99.90;;;;;;4990307;28;20180;-74
2022/01/14 05:54:43;;;;;;;0.60;0.60;;;-0.20;99.90;;;;;;4993941;28;20658;-74
2022/01/14 05:57:08;;;;;;;0.70;0.63;;;-0.20;99.90;;;;;;4993470;28;20559;-74
2022/01/14 05:59:34;;;;;;;0.90;0.80;;;-0.30;99.90;;;;;;4993783;28;20165;-73
2022/01/14 06:02:00;;;;;;;0.63;0.57;;;-0.20;99.90;;;;;;4993244;28;20230;-74
2022/01/14 06:04:25;;;;;;;0.90;0.90;;;-0.30;99.90;;;;;;4992698;28;20595;-73
2022/01/14 06:06:51;;;;;;;0.60;0.60;;;-0.30;99.90;;;;;;4976085;28;20195;-74
2022/01/14 06:09:17;;;;;;;0.60;0.50;;;-0.30;99.90;;;;;;4993449;28;20212;-74
2022/01/14 06:11:43;;;;;;;0.60;0.50;;;-0.30;99.90;;;;;;4981677;28;20463;-74
2022/01/14 06:14:09;;;;;;;0.60;0.50;;;-0.20;99.90;;;;;;4993064;28;20577;-74
2022/01/14 06:16:34;;;;;;;0.70;0.70;;;-0.20;99.90;;;;;;4993567;28;20208;-73
2022/01/14 06:19:00;;;;;;;0.60;0.60;;;-0.20;99.90;;;;;;4992235;28;20456;-73
2022/01/14 06:21:26;;;;;;;0.60;0.53;;;-0.20;99.90;;;;;;4975830;28;20181;-74
2022/01/14 06:23:51;;;;;;;0.60;0.50;;;-0.20;99.90;;;;;;4993147;28;20173;-74
2022/01/14 06:26:17;;;;;;;0.60;0.50;;;-0.30;99.90;;;;;;4992926;28;20200;-73
2022/01/14 06:28:43;;;;;;;0.60;0.53;;;-0.20;99.90;;;;;;4992908;28;20169;-74
2022/01/14 06:31:09;;;;;;;1.63;1.53;;;-0.30;99.90;;;;;;4993192;28;20181;-73
2022/01/14 06:33:35;;;;;;;0.70;0.70;;;-0.30;99.90;;;;;;4974958;28;20520;-73
2022/01/14 06:36:00;;;;;;;0.60;0.50;;;-0.40;99.90;;;;;;4992872;28;20525;-73
2022/01/14 06:38:26;;;;;;;0.60;0.50;;;-0.30;99.90;;;;;;4975302;28;20208;-73
2022/01/14 06:40:51;;;;;;;0.60;0.50;;;-0.40;99.90;;;;;;4992743;28;20173;-73
2022/01/14 06:43:17;;;;;;;1.07;1.07;;;-0.30;99.90;;;;;;4992674;28;20194;-73
2022/01/14 06:45:43;;;;;;;1.13;1.13;;;-0.40;99.90;;;;;;4992931;28;20192;-73
2022/01/14 06:48:09;;;;;;;0.80;0.80;;;-0.40;99.90;;;;;;4991707;28;20231;-73
2022/01/14 06:50:35;;;;;;;0.60;0.57;;;-0.40;99.90;;;;;;4992372;28;20420;-73
2022/01/14 06:53:01;;;;;;;0.60;0.53;;;-0.40;99.90;;;;;;4992622;28;20423;-74
2022/01/14 06:55:27;;;;;;;0.60;0.50;;;-0.40;99.90;;;;;;4992637;28;20832;-73
2022/01/14 06:57:52;;;;;;;0.60;0.50;;;-0.40;99.90;;;;;;4992651;28;20457;-73
2022/01/14 07:00:20;;;;;;;0.70;0.60;;;-0.40;99.90;;;;;;4991735;28;20207;-74
2022/01/14 07:02:45;;;;;;;0.70;0.70;;;-0.40;99.90;;;;;;4992459;28;20165;-73
2022/01/14 07:05:11;;;;;;;1.13;1.03;;;-0.40;99.90;;;;;;4992310;28;20541;-74
2022/01/14 07:07:37;;;;;;;0.77;0.70;;;-0.40;99.90;;;;;;4991074;28;20549;-73
2022/01/14 07:10:05;;;;;;;1.03;0.90;;;-0.40;99.90;;;;;;4992236;28;20422;-73
2022/01/14 07:12:34;;;;;;;0.73;0.70;;;-0.40;99.90;;;;;;4992459;28;20429;-73
2022/01/14 07:15:01;;;;;;;0.60;0.50;;;-0.40;99.90;;;;;;4991854;28;20937;-73
2022/01/14 07:17:27;;;;;;;0.77;0.77;;;-0.40;99.90;;;;;;4991114;28;20464;-74
2022/01/14 07:19:56;;;;;;;0.60;0.53;;;-0.40;99.90;;;;;;4992173;28;20416;-74
2022/01/14 07:22:22;;;;;;;0.60;0.60;;;-0.40;99.90;;;;;;4991885;28;20964;-73
2022/01/14 07:24:48;;;;;;;1.37;1.27;;;-0.30;99.90;;;;;;4992477;28;20419;-73
2022/01/14 07:27:14;;;;;;;0.60;0.50;;;-0.30;99.90;;;;;;4991661;28;20440;-73
2022/01/14 07:29:41;;;;;;;0.80;0.80;;;-0.30;99.90;;;;;;4992186;28;20420;-73
2022/01/14 07:32:07;;;;;;;0.60;0.50;;;-0.30;99.90;;;;;;4992029;28;20424;-72
2022/01/14 07:34:33;;;;;;;0.60;0.50;;;-0.40;99.90;;;;;;4992042;28;20428;-73
2022/01/14 07:36:58;;;;;;;1.80;1.70;;;-0.30;99.90;;;;;;4991730;28;20842;-73
2022/01/14 07:39:24;;;;;;;0.60;0.60;;;-0.30;99.90;;;;;;4992179;28;21031;-73
2022/01/14 07:41:50;;;;;;;0.60;0.60;;;-0.30;99.90;;;;;;4991595;28;20646;-73
2022/01/14 07:44:16;;;;;;;0.93;0.93;;;-0.30;99.90;;;;;;4991949;28;20303;-73
2022/01/14 07:46:42;;;;;;;0.60;0.50;;;-0.30;99.90;;;;;;4991459;28;21030;-73
2022/01/14 07:49:08;;;;;;;0.70;0.70;;;-0.20;99.90;;;;;;4991433;28;20932;-73
2022/01/14 07:51:34;;;;;;;0.70;0.70;;;-0.20;99.90;;;;;;4991825;28;20515;-73
2022/01/14 07:54:05;;;;;;;0.60;0.50;;;-0.20;99.90;;;;;;4974004;28;20427;-73
2022/01/14 07:56:32;;;;;;;3.13;1.80;;;-0.10;99.90;;;;;;4991973;28;20287;-73
2022/01/14 07:58:58;;;;;;;1.87;1.60;;;-0.10;99.90;;;;;;4991596;28;20463;-73
2022/01/14 08:01:24;;;;;;;1.37;1.27;;;-0.10;99.90;;;;;;4991944;28;20416;-73
2022/01/14 08:03:50;;;;;;;0.60;0.57;;;0.00;99.90;;;;;;4991990;28;20517;-73
2022/01/14 08:06:15;;;;;;;0.60;0.50;;;0.10;99.90;;;;;;4991740;28;20197;-73
2022/01/14 08:08:41;;;;;;;1.07;0.90;;;0.20;99.90;;;;;;4991263;28;20185;-73
2022/01/14 08:11:06;;;;;;;0.60;0.50;;;0.30;99.90;;;;;;4991501;28;20264;-73
2022/01/14 08:13:32;;;;;;;0.60;0.57;;;0.20;99.90;;;;;;4991862;28;20184;-74
2022/01/14 08:15:59;;;;;;;0.80;0.80;;;0.20;99.90;;;;;;4991730;28;20215;-72
2022/01/14 08:18:25;;;;;;;0.60;0.50;;;0.30;99.90;;;;;;4990309;28;20343;-73
2022/01/14 08:20:51;;;;;;;0.60;0.60;;;0.40;99.90;;;;;;4991781;28;20507;-73
2022/01/14 08:23:18;;;;;;;0.73;0.73;;;0.60;99.90;;;;;;4990748;28;20181;-73
2022/01/14 08:25:44;;;;;;;9.83;1.50;;;1.00;99.90;;;;;;4990487;28;20515;-73
2022/01/14 08:28:09;;;;;;;2.00;1.90;;;1.90;99.90;;;;;;4993035;28;20423;-73
2022/01/14 08:30:35;;;;;;;0.60;0.60;;;2.70;99.90;;;;;;4995345;28;20267;-72
2022/01/14 08:33:00;;;;;;;0.80;0.80;;;3.70;99.90;;;;;;4995105;28;20571;-73
2022/01/14 08:35:26;;;;;;;1.43;1.33;;;4.60;99.90;;;;;;4995169;28;20210;-73
2022/01/14 08:37:52;;;;;;;0.73;0.70;;;5.10;99.90;;;;;;4995023;28;20200;-73
2022/01/14 08:40:17;;;;;;;0.70;0.60;;;6.00;99.90;;;;;;4992246;28;20263;-73
2022/01/14 08:42:45;;;;;;;2.80;2.70;;;6.70;99.90;;;;;;4994875;28;20201;-73
2022/01/14 08:45:11;;;;;;;1.00;0.90;;;7.40;99.90;;;;;;4995118;28;20848;-72
2022/01/14 08:47:36;;;;;;;1.37;1.27;;;7.60;99.90;;;;;;4994644;28;20547;-73
2022/01/14 08:50:03;;;;;;;1.87;1.77;;;8.20;99.90;;;;;;4993607;28;20654;-73
2022/01/14 08:52:28;;;;;;;1.77;1.67;;;7.90;99.90;;;;;;4995043;28;20181;-73
2022/01/14 08:54:54;;;;;;;5.37;3.00;;;8.90;99.90;;;;;;4994945;28;20482;-74
2022/01/14 08:57:19;;;;;;;11.50;2.40;;;9.50;99.90;;;;;;4982409;28;20201;-74
2022/01/14 08:59:45;;;;;;;1.80;1.70;;;9.80;99.90;;;;;;4994796;28;20432;-74
2022/01/14 09:02:10;;;;;;;2.03;1.33;;;10.00;99.90;;;;;;4994806;28;20539;-73
2022/01/14 09:04:36;;;;;;;5.70;2.50;;;10.40;99.90;;;;;;4993357;28;20634;-73
2022/01/14 09:07:02;;;;;;;4.80;3.00;;;10.20;99.90;;;;;;4994661;28;20199;-74
2022/01/14 09:09:28;;;;;;;1.80;1.43;;;10.20;99.90;;;;;;4988934;28;20205;-73
2022/01/14 09:11:55;;;;;;;2.40;2.20;;;9.90;99.90;;;;;;4983731;28;20835;-73
2022/01/14 09:14:22;;;;;;;2.53;1.60;;;10.60;99.90;;;;;;4994562;28;20188;-73
2022/01/14 09:16:48;;;;;;;2.50;2.30;;;11.50;99.90;;;;;;4994373;28;20455;-73
2022/01/14 09:19:13;;;;;;;6.37;2.10;;;11.30;99.90;;;;;;4993867;28;20463;-72
2022/01/14 09:21:39;;;;;;;2.50;2.30;;;11.50;99.00;;;;;;4994308;28;20424;-73
2022/01/14 09:24:05;;;;;;;4.33;2.60;;;11.60;99.70;;;;;;4989747;28;20184;-73
2022/01/14 09:26:33;;;;;;;3.30;3.00;;;12.10;98.90;;;;;;4993863;28;20448;-73
2022/01/14 09:28:59;;;;;;;2.43;1.90;;;12.20;96.90;;;;;;4992597;28;20517;-73
2022/01/14 09:31:25;;;;;;;3.43;2.37;;;12.50;96.60;;;;;;4994137;28;20483;-73
2022/01/14 09:33:50;;;;;;;6.43;2.13;;;12.80;95.10;;;;;;4993971;28;20424;-73
2022/01/14 09:36:16;;;;;;;1.90;1.80;;;12.80;93.10;;;;;;4976679;28;20597;-73
2022/01/14 09:38:42;;;;;;;2.40;2.20;;;12.60;93.70;;;;;;4976529;28;20204;-73
2022/01/14 09:41:08;;;;;;;2.83;2.60;;;12.40;94.60;;;;;;4993003;28;20200;-73
2022/01/14 09:43:36;;;;;;;2.60;2.40;;;12.40;95.20;;;;;;4990546;28;20459;-73
2022/01/14 09:46:05;;;;;;;2.27;2.07;;;12.00;95.70;;;;;;4998571;28;21002;-73
2022/01/14 09:48:31;;;;;;;1.63;1.53;;;12.80;95.30;;;;;;4993844;28;20937;-74
2022/01/14 09:50:57;;;;;;;2.87;2.20;;;13.00;92.70;;;;;;4993655;28;20436;-74
2022/01/14 09:53:25;;;;;;;2.70;2.10;;;13.50;91.30;;;;;;4993833;28;20435;-74
2022/01/14 09:55:51;;;;;;;5.73;1.67;;;13.80;89.20;;;;;;4993870;28;20201;-74
2022/01/14 09:58:16;;;;;;;1.33;1.23;;;13.90;86.10;;;;;;4993558;28;20987;-73
2022/01/14 10:00:42;;;;;;;7.67;1.73;;;14.00;85.70;;;;;;4993572;28;20176;-73
2022/01/14 10:03:19;;;;;;;5.80;1.83;;;14.70;82.10;;;;;;4993730;28;20557;-73
2022/01/14 10:05:48;;;;;;;2.33;2.10;;;14.30;79.10;;;;;;4993247;28;20275;-74
2022/01/14 10:08:20;;;;;;;1.30;1.10;;;14.20;79.50;;;;;;4993603;28;20443;-73
2022/01/14 10:10:51;;;;;;;5.97;3.37;;;14.30;79.20;;;;;;4993039;28;20436;-73
2022/01/14 10:13:23;;;;;;;3.43;2.73;;;14.10;82.30;;;;;;4992996;28;20423;-73
2022/01/14 10:15:52;;;;;;;2.87;2.67;;;13.90;81.60;;;;;;4993388;28;20452;-73
2022/01/14 10:18:20;;;;;;;4.37;3.33;;;13.90;82.40;;;;;;4993371;28;20459;-74
2022/01/14 10:20:46;;;;;;;5.77;3.53;;;14.40;81.60;;;;;;4993123;28;20462;-74
2022/01/14 10:23:12;;;;;;;4.40;4.00;;;14.50;80.30;;;;;;4993157;28;20428;-73
2022/01/14 10:25:38;;;;;;;2.90;2.10;;;14.70;80.60;;;;;;4992516;28;20444;-74
2022/01/14 10:28:16;;;;;;;3.77;2.20;;;14.80;77.90;;;;;;4993092;28;20435;-74
2022/01/14 10:30:45;;;;;;;4.70;4.20;;;15.30;76.30;;;;;;4992973;28;20447;-75
2022/01/14 10:33:11;;;;;;;2.77;2.57;;;15.20;76.30;;;;;;4993153;28;20925;-73
2022/01/14 10:35:39;;;;;;;6.60;2.70;;;15.60;74.30;;;;;;4993294;28;20459;-74
2022/01/14 10:38:06;;;;;;;9.53;4.37;;;15.80;73.80;;;;;;4992819;28;20204;-74
2022/01/14 10:40:35;;;;;;;2.20;2.00;;;15.90;71.70;;;;;;4992235;28;20459;-74
2022/01/14 10:43:07;;;;;;;3.80;2.13;;;16.10;71.40;;;;;;4991244;28;20792;-73
2022/01/14 10:45:34;;;;;;;2.20;2.10;;;16.00;68.80;;;;;;4988431;28;20429;-74
2022/01/14 10:48:01;;;;;;;2.97;2.73;;;16.00;69.10;;;;;;4990051;28;20453;-74
2022/01/14 10:50:44;;;;;;;2.67;2.20;;;16.00;69.20;;;;;;4992647;28;20439;-73
2022/01/14 10:53:23;;;;;;;2.87;2.50;;;15.30;69.60;;;;;;4992300;28;20432;-74
2022/01/14 10:55:52;;;;;;;2.00;1.90;;;14.00;72.50;;;;;;4986621;28;20521;-73
2022/01/14 10:58:17;;;;;;;3.20;2.90;;;13.60;81.50;;;;;;4985518;28;20818;-74
2022/01/14 11:00:49;;;;;;;3.93;2.20;;;13.30;84.50;;;;;;4992409;28;20416;-73
2022/01/14 11:03:30;;;;;;;9.90;2.73;;;12.50;91.80;;;;;;4972945;28;20173;-74
2022/01/14 11:06:19;;;;;;;2.70;2.10;;;11.70;96.60;;;;;;4979719;28;20516;-73
2022/01/14 11:08:46;;;;;;;2.87;2.53;;;10.80;99.90;;;;;;4992001;28;20432;-75
2022/01/14 11:11:16;;;;;;;1.90;1.70;;;10.50;99.90;;;;;;4985257;28;20420;-73
2022/01/14 11:13:44;;;;;;;1.83;1.73;;;10.10;99.90;;;;;;4975162;28;20455;-74
2022/01/14 11:16:10;;;;;;;1.27;1.20;;;9.60;99.90;;;;;;4989354;28;20811;-73
2022/01/14 11:18:37;;;;;;;1.83;1.30;;;8.90;99.90;;;;;;4981592;28;20552;-73
2022/01/14 11:23:47;;;;;;;3.60;3.40;;;8.30;99.90;;;;;;4989100;28;20439;-73
2022/01/14 11:26:17;;;;;;;1.27;1.17;;;7.90;99.90;;;;;;4989082;28;20448;-73
2022/01/14 11:28:44;;;;;;;2.20;1.77;;;7.90;99.90;;;;;;4991544;28;20535;-74
2022/01/14 11:31:27;;;;;;;2.13;1.50;;;7.60;99.90;;;;;;4974993;28;20462;-74
2022/01/14 11:33:54;;;;;;;1.77;1.67;;;7.30;99.90;;;;;;4984859;28;20426;-73
2022/01/14 11:36:21;;;;;;;2.50;2.13;;;6.80;99.90;;;;;;4974516;28;20865;-74
2022/01/14 11:38:47;;;;;;;6.93;3.80;;;6.70;99.90;;;;;;4984972;28;20488;-74
2022/01/14 11:41:18;;;;;;;7.57;3.03;;;6.70;99.90;;;;;;4992544;28;20400;-73
2022/01/14 11:43:50;;;;;;;2.07;1.97;;;6.60;99.90;;;;;;4991563;28;20889;-74
2022/01/14 11:46:36;;;;;;;2.13;1.93;;;6.40;99.90;;;;;;4986767;28;20449;-73
2022/01/14 11:49:22;;;;;;;2.53;2.43;;;6.30;99.90;;;;;;4991871;28;20793;-73
2022/01/14 11:51:56;;;;;;;2.20;2.10;;;6.30;99.90;;;;;;4991208;28;20867;-73
2022/01/14 11:54:38;;;;;;;0.83;0.83;;;6.20;99.90;;;;;;4984881;28;20431;-73
2022/01/14 11:57:04;;;;;;;2.10;2.00;;;6.20;99.90;;;;;;4991990;28;20523;-74
2022/01/14 11:59:29;;;;;;;1.63;1.53;;;6.10;99.90;;;;;;4991795;28;20547;-73
2022/01/14 12:01:57;;;;;;;4.53;2.10;;;6.00;99.90;;;;;;4991872;28;20169;-73
2022/01/14 12:04:43;;;;;;;1.77;1.60;;;5.90;99.90;;;;;;4995508;28;20169;-73
2022/01/14 12:07:08;;;;;;;3.93;1.53;;;5.80;99.90;;;;;;4995159;28;20568;-73
2022/01/14 12:10:09;;;;;;;0.90;0.90;;;5.60;99.90;;;;;;4978625;28;20847;-73
2022/01/14 12:12:35;;;;;;;1.30;1.20;;;5.50;99.90;;;;;;4990240;28;20168;-74
2022/01/14 12:15:04;;;;;;;1.63;1.53;;;5.40;99.90;;;;;;4982227;28;20426;-73
2022/01/14 12:17:41;;;;;;;1.10;1.10;;;5.40;99.90;;;;;;4995613;28;20495;-73
2022/01/14 12:20:14;;;;;;;0.93;0.90;;;5.30;99.90;;;;;;4994034;28;20411;-73
2022/01/14 12:22:42;;;;;;;6.00;2.13;;;5.30;99.90;;;;;;4995749;28;20976;-73
2022/01/14 12:25:09;;;;;;;2.00;1.90;;;5.40;99.90;;;;;;4995628;28;20427;-72
2022/01/14 12:27:45;;;;;;;11.10;5.40;;;5.40;99.90;;;;;;4994903;28;20448;-73
2022/01/14 12:30:24;;;;;;;0.77;0.77;;;5.30;99.90;;;;;;4983238;28;20416;-74
2022/01/14 12:32:54;;;;;;;1.73;1.63;;;5.30;99.90;;;;;;4995894;28;21004;-73
2022/01/14 12:35:26;;;;;;;1.13;1.03;;;5.30;99.90;;;;;;4995391;28;20447;-74
2022/01/14 12:37:55;;;;;;;1.60;1.50;;;5.30;99.90;;;;;;4995437;28;21018;-73
2022/01/14 12:40:22;;;;;;;6.00;2.60;;;5.40;99.90;;;;;;4994837;28;20474;-74
2022/01/14 12:43:00;;;;;;;7.83;2.20;;;5.40;99.90;;;;;;4994726;28;20432;-73
2022/01/14 12:45:36;;;;;;;2.07;1.90;;;5.40;99.90;;;;;;4995416;28;20996;-74
2022/01/14 12:48:37;;;;;;;0.87;0.87;;;5.40;99.90;;;;;;4995317;28;20457;-74
2022/01/14 12:51:05;;;;;;;3.53;3.23;;;5.40;99.90;;;;;;4996002;28;20419;-73
2022/01/14 12:53:30;;;;;;;0.70;0.60;;;5.40;99.90;;;;;;4996418;28;20439;-73
2022/01/14 12:55:59;;;;;;;3.27;3.07;;;5.60;99.90;;;;;;4996436;28;20460;-73
2022/01/14 12:58:24;;;;;;;1.57;1.47;;;5.70;99.90;;;;;;4964094;28;20199;-73
2022/01/14 13:00:50;;;;;;;1.53;1.43;;;5.70;99.90;;;;;;4995817;28;20424;-72
2022/01/14 13:03:16;;;;;;;1.73;1.63;;;5.90;99.90;;;;;;4996322;28;20187;-73
2022/01/14 13:05:42;;;;;;;2.70;2.50;;;5.90;99.90;;;;;;4994984;28;20181;-72
2022/01/14 13:08:08;;;;;;;4.70;1.17;;;6.10;99.90;;;;;;4994482;28;20439;-73
2022/01/14 13:10:35;;;;;;;1.27;1.27;;;6.10;99.90;;;;;;4994594;28;20463;-72
2022/01/14 13:13:04;;;;;;;2.83;2.20;;;6.40;99.90;;;;;;4994165;28;20177;-73
2022/01/14 13:15:31;;;;;;;0.70;0.70;;;6.60;99.90;;;;;;4994691;28;20428;-72
2022/01/14 13:18:00;;;;;;;2.33;2.00;;;6.40;99.90;;;;;;4977194;28;20463;-72
2022/01/14 13:20:27;;;;;;;1.00;0.90;;;6.30;99.90;;;;;;4994292;28;20447;-73
2022/01/14 13:22:53;;;;;;;1.13;1.13;;;6.40;99.90;;;;;;4994469;28;20428;-72
2022/01/14 13:25:28;;;;;;;2.20;1.60;;;6.30;99.90;;;;;;4983130;28;20429;-71
2022/01/14 13:27:59;;;;;;;1.90;1.80;;;6.40;99.90;;;;;;4991039;28;20549;-72